Webcam & Weather

This webcam image will automatically refresh every 15 seconds.


METAR and TAF for EGLL Heathrow (12 Nautical Miles East of White Waltham)

METAR FOR EGLL (Issued: Tue, April 25th 2017 1:50 PM UTC):
EGLL 251350Z AUTO 01008KT 310V050 9999 NCD 11/M06 Q1014 NOSIG

TAF FOR EGLL (Issued: Tue, April 25th 2017 12:57 PM UTC):
TAF COR TAF COR EGLL 251254Z 2512/2618 34010KT 9999 SCT040 PROB30 TEMPO 2515/2519 36016G26KT 5000 SHRAGS TEMPO 2611/2618 7000 SHRA PROB30 TEMPO 2611/2618 36015G25KT 4000 +SHRA SHGS

Play 24 hour timelapse | Play 30 day timelapse

Comments are closed.